Impacts METAR Board
IDs:

KIAH - Houston/Bush Intl, TX, US

Updated at: 0600 UTC 11 Dec 2018
Potential Impact None Slight Moderate High
Time 10/18Z 10/19Z 10/20Z 10/21Z 10/22Z 10/23Z 11/00Z 11/01Z 11/02Z 11/03Z 11/04Z 11/05Z 11/06Z
Temp54 56 58 59 58 57 52 47 45 43 42 40 39
Dewpt35 33 34 34 31 32 34 36 38 37 38 37 37
Altim30.39 30.36 30.35 30.34 30.35 30.36 30.37 30.39 30.40 30.40 30.41 30.41 30.40
VIS10 10 10 10 10 10 10 10 10 10 10 10 10
CIG-- -- -- -- -- -- -- -- -- -- -- -- --
CoverCLRCLRCLRCLRFEWFEWFEWFEWFEWFEWCLRCLRCLR
FltCatVFRVFRVFRVFRVFRVFRVFRVFRVFRVFRVFRVFRVFR
WX--------------------------
WDir320350340350350320300000000
WSpd7 6 7 6 7 4 3 0 0 0 0 0 0
WGst-- -- -- -- -- -- -- -- -- -- -- -- --
Raw hourly METARs
KIAH 101753Z 32007KT 10SM CLR 12/02 A3039 RMK AO2 SLP292 T01220017 10128 20039 58005
KIAH 101853Z 35006KT 10SM CLR 13/01 A3036 RMK AO2 SLP282 T01330006
KIAH 101953Z 34007KT 10SM CLR 14/01 A3035 RMK AO2 SLP277 T01440011
KIAH 102053Z 35006KT 10SM CLR 15/01 A3034 RMK AO2 SLP276 T01500011 56016
KIAH 102153Z 35007KT 10SM FEW250 14/M01 A3035 RMK AO2 SLP280 T01441006
KIAH 102253Z 32004KT 10SM FEW250 14/00 A3036 RMK AO2 SLP281 T01390000
KIAH 102353Z 30003KT 10SM FEW250 11/01 A3037 RMK AO2 SLP286 T01110011 10156 20111 53010
KIAH 110053Z 00000KT 10SM FEW250 08/02 A3039 RMK AO2 SLP290 T00830022
KIAH 110153Z 00000KT 10SM FEW250 07/03 A3040 RMK AO2 SLP294 T00720033
KIAH 110253Z 00000KT 10SM FEW250 06/03 A3040 RMK AO2 SLP295 T00610028 51009
KIAH 110353Z 00000KT 10SM CLR 06/03 A3041 RMK AO2 SLP297 T00560033
KIAH 110453Z 00000KT 10SM CLR 04/03 A3041 RMK AO2 SLP297 T00440028
KIAH 110553Z 00000KT 10SM CLR 04/03 A3040 RMK AO2 SLP295 T00390028 10111 20039 401560039 50001



Page loaded:  06:22 UTC  |   10:22 PM Pacific  |   11:22 PM Mountain  |   12:22 AM Central  |   01:22 AM Eastern

 

ADVISORIES

FORECASTS

FORECASTS

OBSERVATIONS

USER TOOLS

ABOUT US